Time;durP1;ratioP1;P1;durP2;ratioP2;P2;SDS_P1;SDS_P2;PMS_P1;PMS_P2;Temp;Humidity;BMP_temperature;BMP_pressure;BME280_temperature;BME280_humidity;BME280_pressure;Samples;Min_cycle;Max_cycle;Signal;HPM_P1;HPM_P2
2023/04/03 00:00:26;;;;;;;0.20;0.20;;;-2.10;99.90;;;;;;5018213;28;20076;-76
2023/04/03 00:03:12;;;;;;;0.20;0.20;;;-2.20;99.90;;;;;;5020590;28;20030;-76
2023/04/03 00:05:41;;;;;;;0.20;0.20;;;-2.20;99.90;;;;;;5019267;28;20046;-77
2023/04/03 00:10:42;;;;;;;0.30;0.30;;;-2.30;99.90;;;;;;5076784;23;20067;-76
2023/04/03 00:13:08;;;;;;;0.20;0.20;;;-2.30;99.90;;;;;;5058006;28;20021;-76
2023/04/03 00:15:34;;;;;;;0.20;0.20;;;-2.40;99.90;;;;;;5058799;28;20021;-76
2023/04/03 00:18:00;;;;;;;0.28;0.28;;;-2.30;99.90;;;;;;5056770;28;20029;-76
2023/04/03 00:20:33;;;;;;;0.20;0.20;;;-2.40;99.90;;;;;;5058099;28;20451;-76
2023/04/03 00:23:00;;;;;;;0.20;0.20;;;-2.40;99.90;;;;;;5039777;28;20032;-76
2023/04/03 00:25:26;;;;;;;0.20;0.20;;;-2.40;99.90;;;;;;5058046;28;20029;-77
2023/04/03 00:27:51;;;;;;;0.20;0.20;;;-2.40;99.90;;;;;;5040757;28;20024;-76
2023/04/03 00:30:20;;;;;;;0.20;0.20;;;-2.40;99.90;;;;;;5058430;28;20017;-78
2023/04/03 00:32:48;;;;;;;0.20;0.20;;;-2.50;99.90;;;;;;5057890;28;20029;-76
2023/04/03 00:35:15;;;;;;;0.20;0.20;;;-2.40;99.90;;;;;;5056980;28;20047;-77
2023/04/03 00:37:44;;;;;;;0.20;0.20;;;-2.60;99.90;;;;;;5040171;28;20100;-77
2023/04/03 00:40:11;;;;;;;0.30;0.30;;;-2.60;99.90;;;;;;5038269;28;20115;-77
2023/04/03 00:42:38;;;;;;;0.30;0.30;;;-2.60;99.90;;;;;;5056970;28;20482;-77
2023/04/03 00:45:04;;;;;;;0.30;0.30;;;-2.60;99.90;;;;;;5056222;28;20055;-78
2023/04/03 00:47:36;;;;;;;0.20;0.20;;;-2.60;99.90;;;;;;5057527;28;20021;-77
2023/04/03 00:50:04;;;;;;;0.20;0.20;;;-2.60;99.90;;;;;;5038238;28;20021;-77
2023/04/03 00:52:31;;;;;;;0.30;0.30;;;-2.70;99.90;;;;;;5038047;28;20032;-77
2023/04/03 00:55:03;;;;;;;0.20;0.20;;;-2.70;99.90;;;;;;5036950;28;20033;-77
2023/04/03 00:57:30;;;;;;;0.30;0.30;;;-2.70;99.90;;;;;;5055386;28;20048;-77
2023/04/03 01:00:01;;;;;;;0.30;0.30;;;-2.70;99.90;;;;;;5054278;28;20269;-76
2023/04/03 01:02:27;;;;;;;0.30;0.30;;;-2.70;99.90;;;;;;5055397;28;20028;-76
2023/04/03 01:04:52;;;;;;;0.20;0.20;;;-2.70;99.90;;;;;;5036885;28;20024;-76
2023/04/03 01:07:27;;;;;;;0.20;0.20;;;-2.70;99.90;;;;;;5038023;28;20025;-76
2023/04/03 01:09:58;;;;;;;0.30;0.30;;;-2.70;99.90;;;;;;5036635;28;20441;-78
2023/04/03 01:12:35;;;;;;;0.20;0.20;;;-2.80;99.90;;;;;;5055285;28;20039;-77
2023/04/03 01:15:07;;;;;;;0.10;0.10;;;-2.80;99.90;;;;;;5054154;28;20028;-77
2023/04/03 01:17:45;;;;;;;0.28;0.28;;;-2.80;99.90;;;;;;5053706;28;20517;-77
2023/04/03 01:20:32;;;;;;;0.30;0.30;;;-2.80;99.90;;;;;;5036686;28;20039;-77
2023/04/03 01:23:09;;;;;;;0.20;0.20;;;-2.90;99.90;;;;;;5035754;28;20029;-76
2023/04/03 01:25:52;;;;;;;0.13;0.13;;;-2.80;99.90;;;;;;5055026;28;20486;-75
2023/04/03 01:28:26;;;;;;;0.20;0.20;;;-2.90;99.90;;;;;;5054190;28;20577;-76
2023/04/03 01:31:15;;;;;;;0.20;0.20;;;-2.90;99.90;;;;;;5027498;28;20117;-77
2023/04/03 01:33:41;;;;;;;0.30;0.30;;;-2.90;99.90;;;;;;5039950;28;20131;-76
2023/04/03 01:36:08;;;;;;;0.20;0.20;;;-3.00;99.90;;;;;;5035240;28;20057;-76
2023/04/03 01:38:33;;;;;;;0.20;0.20;;;-2.90;99.90;;;;;;5015654;28;20076;-77
2023/04/03 01:40:59;;;;;;;0.25;0.25;;;-3.00;99.90;;;;;;5046236;28;20037;-77
2023/04/03 01:43:25;;;;;;;0.20;0.20;;;-3.00;99.90;;;;;;5053959;28;20021;-76
2023/04/03 01:45:52;;;;;;;0.22;0.22;;;-3.00;99.90;;;;;;5036537;28;20025;-76
2023/04/03 01:48:17;;;;;;;0.22;0.22;;;-3.00;99.90;;;;;;5054264;28;20477;-76
2023/04/03 01:50:43;;;;;;;0.20;0.20;;;-3.00;99.90;;;;;;5035429;28;20071;-76
2023/04/03 01:53:08;;;;;;;0.28;0.28;;;-3.00;99.90;;;;;;5035644;28;20059;-76
2023/04/03 01:55:44;;;;;;;0.20;0.20;;;-3.00;99.90;;;;;;5035639;28;20064;-76
2023/04/03 01:58:10;;;;;;;0.20;0.20;;;-2.90;99.90;;;;;;5051099;28;20044;-77
2023/04/03 02:00:35;;;;;;;0.20;0.20;;;-3.00;99.90;;;;;;5035494;28;20402;-77
2023/04/03 02:03:01;;;;;;;0.30;0.30;;;-2.90;99.90;;;;;;5032721;28;20033;-76
2023/04/03 02:05:27;;;;;;;0.30;0.30;;;-2.80;99.90;;;;;;5034745;28;20026;-77
2023/04/03 02:08:01;;;;;;;0.17;0.17;;;-2.80;99.90;;;;;;5034517;28;20563;-76
2023/04/03 02:10:50;;;;;;;0.30;0.30;;;-2.90;99.90;;;;;;5043459;23;20072;-77
2023/04/03 02:13:16;;;;;;;0.20;0.20;;;-2.80;99.90;;;;;;5025525;28;20463;-77
2023/04/03 02:16:04;;;;;;;0.20;0.20;;;-3.00;99.90;;;;;;5021386;28;20108;-76
2023/04/03 02:18:50;;;;;;;0.20;0.20;;;-3.00;99.90;;;;;;5015770;28;20045;-77
2023/04/03 02:21:19;;;;;;;0.20;0.20;;;-3.00;99.90;;;;;;5034955;28;20120;-76
2023/04/03 02:23:44;;;;;;;0.20;0.20;;;-3.00;99.90;;;;;;5036846;28;20059;-76
2023/04/03 02:26:16;;;;;;;0.28;0.28;;;-3.00;99.90;;;;;;5008854;28;20061;-77
2023/04/03 02:28:42;;;;;;;0.20;0.20;;;-3.10;99.90;;;;;;5048428;23;20064;-77
2023/04/03 02:31:10;;;;;;;0.30;0.30;;;-3.20;99.90;;;;;;5036852;28;20017;-76
2023/04/03 02:33:36;;;;;;;0.20;0.20;;;-3.20;99.90;;;;;;5035291;28;20029;-77
2023/04/03 02:36:06;;;;;;;0.22;0.22;;;-3.20;99.90;;;;;;5037395;28;20026;-76
2023/04/03 02:38:32;;;;;;;0.20;0.20;;;-3.20;99.90;;;;;;5037446;28;20386;-75
2023/04/03 02:41:05;;;;;;;0.20;0.20;;;-3.20;99.90;;;;;;5018707;28;20021;-75
2023/04/03 02:43:30;;;;;;;0.25;0.25;;;-3.20;99.90;;;;;;5017793;28;20552;-76
2023/04/03 02:45:56;;;;;;;0.20;0.20;;;-3.30;99.90;;;;;;5037148;28;20041;-75
2023/04/03 02:48:31;;;;;;;0.20;0.20;;;-3.30;99.90;;;;;;5034639;28;20164;-77
2023/04/03 02:50:56;;;;;;;0.20;0.20;;;-3.30;99.90;;;;;;5017551;28;20030;-76
2023/04/03 02:53:22;;;;;;;0.30;0.30;;;-3.30;99.90;;;;;;5016245;28;20030;-77
2023/04/03 02:55:48;;;;;;;0.20;0.20;;;-3.40;99.90;;;;;;5030900;28;20530;-77
2023/04/03 02:58:14;;;;;;;0.30;0.30;;;-3.40;99.90;;;;;;5026941;23;20037;-77
2023/04/03 03:00:40;;;;;;;0.20;0.20;;;-3.40;99.90;;;;;;5056574;28;20501;-77
2023/04/03 03:03:13;;;;;;;0.20;0.20;;;-3.40;99.90;;;;;;5037894;28;20058;-76
2023/04/03 03:05:48;;;;;;;0.20;0.20;;;-3.40;99.90;;;;;;5056335;28;20091;-77
2023/04/03 03:08:23;;;;;;;0.20;0.20;;;-3.40;99.90;;;;;;5038429;28;20033;-76
2023/04/03 03:10:51;;;;;;;0.20;0.20;;;-3.40;99.90;;;;;;5056727;28;20101;-77
2023/04/03 03:13:17;;;;;;;0.20;0.20;;;-3.50;99.90;;;;;;5053819;28;20071;-76
2023/04/03 03:15:42;;;;;;;0.20;0.20;;;-3.50;99.90;;;;;;5054494;28;20391;-77
2023/04/03 03:18:10;;;;;;;0.20;0.20;;;-3.50;99.90;;;;;;5037882;28;20021;-77
2023/04/03 03:20:38;;;;;;;0.28;0.28;;;-3.60;99.90;;;;;;5044464;28;20108;-76
2023/04/03 03:23:06;;;;;;;0.20;0.20;;;-3.60;99.90;;;;;;5036021;28;20048;-77
2023/04/03 03:25:32;;;;;;;0.25;0.25;;;-3.70;99.90;;;;;;5042704;28;20025;-77
2023/04/03 03:27:57;;;;;;;0.20;0.20;;;-3.50;99.90;;;;;;5056816;28;20029;-77
2023/04/03 03:30:23;;;;;;;0.30;0.30;;;-3.40;99.90;;;;;;5037981;28;20056;-75
2023/04/03 03:32:49;;;;;;;0.20;0.20;;;-3.40;99.90;;;;;;5057016;28;20048;-77
2023/04/03 03:35:14;;;;;;;0.20;0.20;;;-3.40;99.90;;;;;;5056894;28;20040;-75
2023/04/03 03:37:40;;;;;;;0.10;0.10;;;-3.40;99.90;;;;;;5055985;28;20041;-77
2023/04/03 03:40:06;;;;;;;0.20;0.20;;;-3.50;99.90;;;;;;5055976;28;20040;-78
2023/04/03 03:42:31;;;;;;;0.20;0.20;;;-3.50;99.90;;;;;;5037950;28;20449;-76
2023/04/03 03:45:03;;;;;;;0.20;0.20;;;-3.50;99.90;;;;;;5055711;28;20040;-76
2023/04/03 03:47:28;;;;;;;0.20;0.20;;;-3.30;99.90;;;;;;5038569;28;20025;-77
2023/04/03 03:49:54;;;;;;;0.20;0.20;;;-3.50;99.90;;;;;;5056529;28;20033;-76
2023/04/03 03:52:19;;;;;;;0.22;0.22;;;-3.60;99.90;;;;;;5056007;28;20021;-77
2023/04/03 03:54:45;;;;;;;0.38;0.38;;;-3.60;99.90;;;;;;5038381;28;20025;-77
2023/04/03 03:57:10;;;;;;;0.30;0.30;;;-3.60;99.90;;;;;;5054511;28;20017;-77
2023/04/03 03:59:36;;;;;;;0.20;0.20;;;-3.70;99.90;;;;;;5055442;28;20033;-77
2023/04/03 04:02:02;;;;;;;0.20;0.20;;;-3.70;99.90;;;;;;5055207;28;20478;-77
2023/04/03 04:04:27;;;;;;;0.20;0.20;;;-3.60;99.90;;;;;;5055507;28;20422;-76
2023/04/03 04:06:53;;;;;;;0.20;0.20;;;-3.60;99.90;;;;;;5054845;28;20029;-78
2023/04/03 04:09:18;;;;;;;0.20;0.20;;;-3.70;99.90;;;;;;5033652;23;20041;-76
2023/04/03 04:11:44;;;;;;;0.20;0.20;;;-3.70;99.90;;;;;;5017833;28;20045;-77
2023/04/03 04:14:12;;;;;;;0.20;0.20;;;-3.70;99.90;;;;;;5013387;28;20033;-76
2023/04/03 04:16:37;;;;;;;0.30;0.30;;;-3.70;99.90;;;;;;4997792;28;20037;-77
2023/04/03 04:19:03;;;;;;;0.20;0.20;;;-3.70;99.90;;;;;;4999807;28;20017;-77
2023/04/03 04:21:29;;;;;;;0.20;0.20;;;-3.80;99.90;;;;;;5054008;28;20025;-77
2023/04/03 04:23:54;;;;;;;0.20;0.20;;;-3.80;99.90;;;;;;5036272;28;20029;-77
2023/04/03 04:26:20;;;;;;;0.30;0.30;;;-3.80;99.90;;;;;;5037289;28;20025;-77
2023/04/03 04:28:51;;;;;;;0.20;0.20;;;-3.70;99.90;;;;;;5054336;28;20558;-76
2023/04/03 04:31:16;;;;;;;0.28;0.28;;;-3.80;99.90;;;;;;5037035;28;20025;-77
2023/04/03 04:33:42;;;;;;;0.30;0.30;;;-3.80;99.90;;;;;;5054577;28;20494;-77
2023/04/03 04:36:07;;;;;;;0.30;0.30;;;-3.80;99.90;;;;;;5039169;28;20029;-77
2023/04/03 04:38:38;;;;;;;0.20;0.20;;;-3.90;99.90;;;;;;5034568;28;20025;-76
2023/04/03 04:41:07;;;;;;;0.20;0.20;;;-3.90;99.90;;;;;;5017383;28;20483;-76
2023/04/03 04:43:32;;;;;;;0.20;0.20;;;-4.00;99.90;;;;;;5039952;28;20074;-77
2023/04/03 04:46:04;;;;;;;0.20;0.20;;;-4.00;99.90;;;;;;5042173;28;20033;-77
2023/04/03 04:48:30;;;;;;;0.30;0.30;;;-4.00;99.90;;;;;;5015970;28;20029;-77
2023/04/03 04:50:55;;;;;;;0.20;0.20;;;-4.10;99.90;;;;;;5020378;28;20372;-76
2023/04/03 04:53:21;;;;;;;0.20;0.20;;;-4.00;99.90;;;;;;5013019;28;20025;-77
2023/04/03 04:55:46;;;;;;;0.20;0.20;;;-4.00;99.90;;;;;;5013796;28;20080;-76
2023/04/03 04:58:12;;;;;;;0.20;0.20;;;-4.00;99.90;;;;;;5014404;28;20041;-77
2023/04/03 05:00:37;;;;;;;0.25;0.25;;;-4.00;99.90;;;;;;5032713;28;20032;-77
2023/04/03 05:03:06;;;;;;;0.30;0.30;;;-4.00;99.90;;;;;;5034108;28;20029;-77
2023/04/03 05:05:31;;;;;;;0.20;0.20;;;-3.90;99.90;;;;;;5016978;28;20033;-77
2023/04/03 05:07:57;;;;;;;0.30;0.30;;;-4.00;99.90;;;;;;5016665;28;20038;-77
2023/04/03 05:10:22;;;;;;;0.30;0.30;;;-4.00;99.90;;;;;;5016227;28;20032;-77
2023/04/03 05:12:48;;;;;;;0.20;0.20;;;-4.00;99.90;;;;;;5016385;28;20029;-77
2023/04/03 05:15:14;;;;;;;0.20;0.20;;;-3.90;99.90;;;;;;5034262;28;20048;-77
2023/04/03 05:17:39;;;;;;;0.20;0.20;;;-3.80;99.90;;;;;;5034044;28;20479;-77
2023/04/03 05:20:05;;;;;;;0.20;0.20;;;-3.80;99.90;;;;;;5058000;23;20047;-77
2023/04/03 05:22:31;;;;;;;0.20;0.20;;;-3.80;99.90;;;;;;5054105;28;20021;-77
2023/04/03 05:24:57;;;;;;;0.30;0.30;;;-3.70;99.90;;;;;;5054179;28;20037;-76
2023/04/03 05:27:28;;;;;;;0.28;0.28;;;-3.70;99.90;;;;;;5036388;28;20025;-75
2023/04/03 05:29:54;;;;;;;0.20;0.20;;;-3.60;99.90;;;;;;5030675;28;20026;-76
2023/04/03 05:32:20;;;;;;;0.30;0.30;;;-3.60;99.90;;;;;;5015930;28;20032;-76
2023/04/03 05:34:45;;;;;;;0.25;0.25;;;-3.60;99.90;;;;;;5014966;28;20025;-77
2023/04/03 05:37:20;;;;;;;0.20;0.20;;;-3.50;99.90;;;;;;5034617;28;20072;-76
2023/04/03 05:39:55;;;;;;;0.25;0.25;;;-3.50;99.90;;;;;;5015349;28;20075;-78
2023/04/03 05:42:28;;;;;;;0.20;0.20;;;-3.40;99.90;;;;;;5024699;28;20026;-76
2023/04/03 05:44:53;;;;;;;0.30;0.30;;;-3.30;99.90;;;;;;5036372;28;20091;-76
2023/04/03 05:47:19;;;;;;;0.30;0.30;;;-3.20;99.90;;;;;;5020636;28;20029;-77
2023/04/03 05:49:45;;;;;;;0.30;0.30;;;-3.20;99.90;;;;;;5038105;28;20029;-76
2023/04/03 05:52:31;;;;;;;0.20;0.20;;;-3.00;99.90;;;;;;5035564;28;20026;-76
2023/04/03 05:54:57;;;;;;;0.20;0.20;;;-2.90;99.90;;;;;;5019173;28;20495;-76
2023/04/03 05:57:26;;;;;;;0.20;0.20;;;-2.80;99.90;;;;;;5001799;28;20026;-76
2023/04/03 05:59:51;;;;;;;0.20;0.20;;;-2.60;99.90;;;;;;5025564;23;20467;-76
2023/04/03 06:02:20;;;;;;;0.20;0.20;;;-2.30;99.90;;;;;;5039329;28;20083;-77
2023/04/03 06:04:47;;;;;;;0.20;0.20;;;-2.10;99.90;;;;;;5021871;28;20068;-76
2023/04/03 06:07:22;;;;;;;0.20;0.20;;;-2.00;99.90;;;;;;5022289;28;20022;-77
2023/04/03 06:09:49;;;;;;;0.20;0.20;;;-1.80;99.90;;;;;;5023082;28;20030;-77
2023/04/03 06:12:20;;;;;;;0.17;0.17;;;-1.60;99.90;;;;;;5022585;28;20416;-76
2023/04/03 06:14:57;;;;;;;0.20;0.20;;;-1.30;99.90;;;;;;5018294;28;20057;-77
2023/04/03 06:17:35;;;;;;;0.22;0.22;;;-1.40;99.90;;;;;;5021903;28;20048;-77
2023/04/03 06:20:07;;;;;;;0.30;0.30;;;-1.20;99.90;;;;;;5021262;28;20033;-76
2023/04/03 06:22:41;;;;;;;0.20;0.20;;;-1.10;99.90;;;;;;5022472;28;20025;-77
2023/04/03 06:25:12;;;;;;;0.20;0.20;;;-0.90;99.90;;;;;;5032520;28;20044;-77
2023/04/03 06:27:38;;;;;;;0.20;0.20;;;-0.60;99.90;;;;;;5027558;28;20527;-77
2023/04/03 06:30:05;;;;;;;0.20;0.20;;;-0.60;99.90;;;;;;5085537;22;20045;-76
2023/04/03 06:32:30;;;;;;;0.20;0.20;;;-0.50;99.90;;;;;;5069105;28;20165;-75
2023/04/03 06:34:58;;;;;;;0.20;0.20;;;-0.30;99.90;;;;;;5055341;28;20032;-77
2023/04/03 06:37:28;;;;;;;0.22;0.22;;;-0.20;99.90;;;;;;5020803;28;20037;-76
2023/04/03 06:39:54;;;;;;;0.20;0.20;;;-0.10;99.90;;;;;;5043886;28;20401;-75
2023/04/03 06:42:20;;;;;;;0.20;0.20;;;0.00;99.90;;;;;;5040682;28;20115;-76
2023/04/03 06:44:46;;;;;;;0.20;0.20;;;0.10;99.90;;;;;;5053062;28;20028;-76
2023/04/03 06:47:16;;;;;;;0.20;0.20;;;0.30;99.90;;;;;;5055149;28;20053;-77
2023/04/03 06:50:03;;;;;;;0.20;0.20;;;0.40;99.90;;;;;;5099193;22;20502;-77
2023/04/03 06:52:34;;;;;;;0.20;0.20;;;0.50;99.90;;;;;;5071172;28;20124;-77
2023/04/03 06:55:00;;;;;;;0.30;0.30;;;0.50;99.90;;;;;;5089599;28;20021;-76
2023/04/03 06:57:26;;;;;;;0.30;0.30;;;0.70;99.90;;;;;;5090399;28;20146;-76
2023/04/03 06:59:51;;;;;;;0.20;0.20;;;0.90;99.90;;;;;;5089308;28;20071;-76
2023/04/03 07:02:17;;;;;;;0.20;0.20;;;1.00;99.90;;;;;;5088236;28;20024;-76
2023/04/03 07:04:43;;;;;;;0.20;0.20;;;1.10;99.90;;;;;;5065598;28;20056;-76
2023/04/03 07:07:21;;;;;;;;;;;;;;;;;;;;;
2023/04/03 07:10:06;;;;;;;0.20;0.20;;;1.50;99.90;;;;;;5144046;22;20139;-76
2023/04/03 07:12:40;;;;;;;0.20;0.20;;;1.90;99.90;;;;;;5062298;28;20517;-77
2023/04/03 07:15:18;;;;;;;0.20;0.20;;;2.10;99.90;;;;;;5061314;28;20043;-76
2023/04/03 07:18:05;;;;;;;0.20;0.20;;;2.20;99.90;;;;;;5041733;28;20063;-77
2023/04/03 07:20:34;;;;;;;0.13;0.13;;;2.30;99.90;;;;;;5024497;28;20029;-77
2023/04/03 07:23:19;;;;;;;0.28;0.28;;;2.60;99.90;;;;;;5021546;28;20068;-77
2023/04/03 07:25:50;;;;;;;0.20;0.20;;;2.80;99.90;;;;;;5007781;28;20142;-77
2023/04/03 07:28:27;;;;;;;0.17;0.17;;;2.90;99.90;;;;;;5023887;28;20025;-76
2023/04/03 07:30:59;;;;;;;0.20;0.20;;;3.20;99.90;;;;;;5010690;28;20092;-77
2023/04/03 07:33:28;;;;;;;0.20;0.20;;;3.30;99.90;;;;;;5045728;28;20060;-77
2023/04/03 07:35:53;;;;;;;0.30;0.30;;;3.60;99.90;;;;;;5033418;28;20116;-77
2023/04/03 07:38:19;;;;;;;0.20;0.20;;;3.70;99.90;;;;;;5064038;22;20025;-78
2023/04/03 07:40:50;;;;;;;0.25;0.25;;;3.90;99.90;;;;;;5092650;28;20577;-78
2023/04/03 07:43:20;;;;;;;0.30;0.30;;;4.10;99.90;;;;;;5083661;28;20016;-78
2023/04/03 07:45:49;;;;;;;0.20;0.20;;;4.30;99.90;;;;;;5077292;28;20040;-77
2023/04/03 07:48:17;;;;;;;0.20;0.20;;;4.30;99.90;;;;;;5076458;28;20016;-78
2023/04/03 07:50:43;;;;;;;0.20;0.20;;;4.40;99.90;;;;;;5059035;28;20051;-81
2023/04/03 07:53:09;;;;;;;0.20;0.20;;;4.60;99.90;;;;;;5059435;28;20031;-77
2023/04/03 07:55:37;;;;;;;0.20;0.20;;;4.70;99.90;;;;;;5064869;28;20025;-77
2023/04/03 07:58:03;;;;;;;0.15;0.15;;;5.00;99.90;;;;;;5059114;28;20021;-77
2023/04/03 08:00:31;;;;;;;0.20;0.20;;;5.00;99.90;;;;;;5038702;28;20029;-77
2023/04/03 08:02:57;;;;;;;0.20;0.20;;;5.20;99.90;;;;;;5063993;28;20024;-77
2023/04/03 08:05:22;;;;;;;0.20;0.20;;;5.30;99.90;;;;;;5078501;28;20035;-78
2023/04/03 08:07:48;;;;;;;0.20;0.20;;;5.50;99.90;;;;;;5077022;28;20063;-77
2023/04/03 08:10:23;;;;;;;0.20;0.20;;;5.60;99.90;;;;;;5059742;28;20071;-76
2023/04/03 08:12:48;;;;;;;0.10;0.10;;;5.60;99.90;;;;;;5038763;28;20024;-77
2023/04/03 08:15:14;;;;;;;0.30;0.30;;;5.80;99.90;;;;;;5077063;28;20025;-76
2023/04/03 08:17:40;;;;;;;0.20;0.20;;;6.00;99.90;;;;;;5076421;28;20033;-77
2023/04/03 08:20:06;;;;;;;0.20;0.20;;;6.10;99.90;;;;;;5074687;28;20466;-77
2023/04/03 08:22:33;;;;;;;0.22;0.22;;;6.40;99.90;;;;;;5076281;28;20078;-76
2023/04/03 08:25:01;;;;;;;0.20;0.20;;;6.60;99.90;;;;;;5072621;28;20055;-76
2023/04/03 08:27:27;;;;;;;0.20;0.20;;;6.80;99.90;;;;;;5077210;28;20118;-77
2023/04/03 08:29:52;;;;;;;0.20;0.20;;;7.10;99.90;;;;;;5076078;28;20029;-77
2023/04/03 08:32:21;;;;;;;0.20;0.20;;;7.20;99.90;;;;;;5075400;28;20040;-76
2023/04/03 08:34:55;;;;;;;0.20;0.20;;;7.60;99.90;;;;;;5077327;28;20033;-76
2023/04/03 08:37:21;;;;;;;0.20;0.20;;;7.90;99.90;;;;;;5057804;28;20091;-76
2023/04/03 08:39:47;;;;;;;0.20;0.20;;;7.70;99.90;;;;;;5057613;28;20024;-78
2023/04/03 08:42:21;;;;;;;0.10;0.10;;;7.80;99.90;;;;;;5051011;28;20078;-77
2023/04/03 08:44:56;;;;;;;0.25;0.25;;;7.70;99.90;;;;;;5077945;28;20064;-76
2023/04/03 08:47:42;;;;;;;0.22;0.22;;;7.90;99.90;;;;;;5061996;28;20094;-77
2023/04/03 08:50:21;;;;;;;0.13;0.13;;;7.90;99.90;;;;;;5068722;22;20041;-76
2023/04/03 08:52:53;;;;;;;0.20;0.20;;;8.00;99.90;;;;;;5058553;28;20017;-77
2023/04/03 08:55:33;;;;;;;0.20;0.20;;;8.00;99.90;;;;;;5042049;28;20032;-77
2023/04/03 08:57:59;;;;;;;0.30;0.30;;;8.10;99.90;;;;;;5041012;28;20024;-76
2023/04/03 09:00:27;;;;;;;0.20;0.20;;;8.10;99.90;;;;;;5055493;28;20037;-76
2023/04/03 09:02:55;;;;;;;0.20;0.20;;;8.10;99.90;;;;;;5051298;28;20021;-77
2023/04/03 09:05:39;;;;;;;0.20;0.20;;;8.30;99.90;;;;;;5039985;28;20033;-76
2023/04/03 09:08:15;;;;;;;0.30;0.30;;;8.60;99.90;;;;;;5041054;28;20552;-76
2023/04/03 09:10:44;;;;;;;0.30;0.30;;;9.00;99.90;;;;;;5059438;28;20021;-77
2023/04/03 09:13:30;;;;;;;0.22;0.22;;;9.20;99.90;;;;;;5042207;28;20504;-77
2023/04/03 09:16:00;;;;;;;0.10;0.10;;;9.30;99.90;;;;;;5048867;28;20029;-76
2023/04/03 09:18:39;;;;;;;0.20;0.20;;;9.20;99.90;;;;;;5030151;28;20025;-77
2023/04/03 09:21:25;;;;;;;0.30;0.30;;;9.10;99.90;;;;;;5049523;28;20061;-78
2023/04/03 09:24:00;;;;;;;0.30;0.30;;;9.30;99.90;;;;;;5065508;28;20497;-78
2023/04/03 09:26:36;;;;;;;0.17;0.17;;;9.50;99.90;;;;;;5032218;28;20033;-76
2023/04/03 09:29:25;;;;;;;0.20;0.20;;;9.70;99.90;;;;;;5048711;28;20168;-77
2023/04/03 09:31:57;;;;;;;0.20;0.20;;;9.90;99.90;;;;;;5052483;28;20110;-76
2023/04/03 09:34:31;;;;;;;0.20;0.20;;;10.10;99.90;;;;;;5029473;28;20053;-77
2023/04/03 09:37:06;;;;;;;0.30;0.30;;;9.70;99.90;;;;;;5046930;28;20076;-77
2023/04/03 09:39:53;;;;;;;0.20;0.20;;;9.90;99.90;;;;;;5047642;28;20029;-76
2023/04/03 09:42:23;;;;;;;0.10;0.10;;;9.90;99.90;;;;;;5057859;28;20076;-76
2023/04/03 09:44:56;;;;;;;0.20;0.20;;;10.10;99.90;;;;;;5056208;28;20017;-77
2023/04/03 09:47:37;;;;;;;0.20;0.20;;;10.30;99.90;;;;;;5050429;28;20076;-77
2023/04/03 09:50:20;;;;;;;0.20;0.20;;;10.40;99.90;;;;;;5053272;28;20047;-77
2023/04/03 09:52:51;;;;;;;0.20;0.20;;;10.20;99.90;;;;;;5051548;28;20021;-78
2023/04/03 09:55:29;;;;;;;0.15;0.15;;;10.40;99.90;;;;;;5043685;28;20097;-77
2023/04/03 10:00:57;;;;;;;0.20;0.20;;;10.70;99.90;;;;;;5101992;22;20044;-77
2023/04/03 10:03:35;;;;;;;0.20;0.20;;;10.70;99.90;;;;;;5092154;28;20017;-79
2023/04/03 10:06:02;;;;;;;0.20;0.20;;;11.00;99.90;;;;;;5072733;28;20049;-78
2023/04/03 10:08:33;;;;;;;0.10;0.10;;;11.40;99.90;;;;;;5075085;28;20032;-78
2023/04/03 10:11:26;;;;;;;0.20;0.20;;;11.80;99.90;;;;;;5074381;28;20024;-78
2023/04/03 10:14:00;;;;;;;0.20;0.20;;;12.10;99.90;;;;;;5071909;28;20088;-78
2023/04/03 10:16:33;;;;;;;0.20;0.20;;;12.40;99.90;;;;;;5072988;28;20033;-77
2023/04/03 10:19:21;;;;;;;0.20;0.20;;;12.10;99.90;;;;;;5076626;28;20021;-79
2023/04/03 10:22:08;;;;;;;0.10;0.10;;;12.30;99.90;;;;;;5095765;28;20262;-78
2023/04/03 10:25:10;;;;;;;0.10;0.10;;;12.70;99.90;;;;;;5094969;28;20013;-78
2023/04/03 10:28:09;;;;;;;0.10;0.10;;;13.50;99.90;;;;;;5044622;28;20021;-78
2023/04/03 10:31:22;;;;;;;0.20;0.20;;;14.30;99.90;;;;;;5076497;28;20017;-78
2023/04/03 10:34:17;;;;;;;0.10;0.10;;;14.90;99.90;;;;;;5078659;28;20025;-77
2023/04/03 10:37:19;;;;;;;0.20;0.20;;;15.30;99.90;;;;;;5080248;28;20044;-79
2023/04/03 10:40:27;;;;;;;0.10;0.10;;;14.90;99.90;;;;;;5091232;22;20034;-78
2023/04/03 10:43:34;;;;;;;0.17;0.17;;;14.10;99.90;;;;;;5028786;28;20123;-79
2023/04/03 10:46:22;;;;;;;0.10;0.10;;;13.10;99.90;;;;;;5068111;28;20096;-81
2023/04/03 10:49:35;;;;;;;0.17;0.17;;;12.30;99.90;;;;;;5062933;28;20026;-81
2023/04/03 10:52:18;;;;;;;0.20;0.20;;;11.60;99.90;;;;;;5064860;28;20029;-82
2023/04/03 10:55:13;;;;;;;0.20;0.20;;;11.20;99.90;;;;;;5067911;28;20026;-80
2023/04/03 10:57:40;;;;;;;0.10;0.10;;;10.90;99.90;;;;;;5066823;28;20006;-79
2023/04/03 11:00:18;;;;;;;0.20;0.20;;;10.60;99.90;;;;;;5043583;28;20029;-83
2023/04/03 11:02:57;;;;;;;0.20;0.20;;;10.50;99.90;;;;;;5067150;28;20032;-81
2023/04/03 11:05:47;;;;;;;0.17;0.17;;;10.30;99.90;;;;;;5071213;28;20043;-84
2023/04/03 11:08:39;;;;;;;0.20;0.20;;;10.00;99.90;;;;;;5068008;28;20026;-81
2023/04/03 11:11:35;;;;;;;0.10;0.10;;;9.70;99.90;;;;;;5044458;28;20016;-80
2023/04/03 11:14:16;;;;;;;0.25;0.25;;;9.60;99.90;;;;;;5061081;28;20072;-79
2023/04/03 11:17:08;;;;;;;0.20;0.20;;;10.30;99.90;;;;;;5062430;28;20048;-79
2023/04/03 11:19:36;;;;;;;0.20;0.20;;;10.70;99.90;;;;;;5060740;28;20093;-81
2023/04/03 11:22:32;;;;;;;0.20;0.20;;;11.00;99.90;;;;;;5067022;28;20029;-82
2023/04/03 11:25:03;;;;;;;0.13;0.13;;;11.70;99.90;;;;;;5027173;28;20037;-80
2023/04/03 11:27:46;;;;;;;0.10;0.10;;;11.70;99.90;;;;;;5072046;28;20029;-80
2023/04/03 11:30:31;;;;;;;0.20;0.20;;;12.30;99.90;;;;;;5089092;23;20056;-79
2023/04/03 11:33:35;;;;;;;0.20;0.20;;;13.00;99.90;;;;;;5081263;28;20048;-80
2023/04/03 11:36:19;;;;;;;0.20;0.20;;;13.70;99.90;;;;;;5087983;28;20028;-79
2023/04/03 11:38:46;;;;;;;0.13;0.13;;;14.20;99.90;;;;;;5073945;28;20037;-79
2023/04/03 11:41:32;;;;;;;0.10;0.10;;;13.70;99.90;;;;;;5066671;28;20025;-79
2023/04/03 11:44:25;;;;;;;0.20;0.20;;;13.20;99.90;;;;;;5065954;28;20044;-84
2023/04/03 11:46:57;;;;;;;0.10;0.10;;;13.00;99.90;;;;;;5073588;28;20111;-75
2023/04/03 11:49:54;;;;;;;0.10;0.10;;;13.70;99.90;;;;;;5072135;28;20371;-77
2023/04/03 11:52:45;;;;;;;0.13;0.13;;;14.50;99.90;;;;;;5074570;28;20037;-77
2023/04/03 11:55:20;;;;;;;0.20;0.20;;;15.20;99.90;;;;;;5071351;28;20083;-78
2023/04/03 11:57:58;;;;;;;0.10;0.10;;;14.70;99.90;;;;;;5074763;28;20184;-78
2023/04/03 12:00:54;;;;;;;0.10;0.10;;;14.80;99.90;;;;;;5068840;28;20395;-78
2023/04/03 12:03:32;;;;;;;0.10;0.10;;;15.40;99.90;;;;;;5070459;28;20041;-78
2023/04/03 12:06:06;;;;;;;0.10;0.10;;;15.70;99.90;;;;;;5064976;28;20495;-79
2023/04/03 12:08:49;;;;;;;0.20;0.20;;;16.30;99.90;;;;;;5083083;28;20025;-78
2023/04/03 12:11:26;;;;;;;0.10;0.10;;;16.20;99.90;;;;;;5067713;28;20067;-77
2023/04/03 12:13:55;;;;;;;0.13;0.13;;;14.90;99.90;;;;;;5089866;28;20017;-79
2023/04/03 12:16:43;;;;;;;0.10;0.10;;;14.00;99.90;;;;;;5080462;28;20028;-78
2023/04/03 12:19:15;;;;;;;0.15;0.15;;;13.20;99.90;;;;;;5057545;28;20024;-78
2023/04/03 12:21:47;;;;;;;0.10;0.10;;;12.80;99.90;;;;;;5083647;28;20020;-78
2023/04/03 12:24:34;;;;;;;0.10;0.10;;;12.20;99.90;;;;;;5084913;28;20042;-78
2023/04/03 12:26:59;;;;;;;0.13;0.13;;;11.80;99.90;;;;;;5075571;28;20017;-79
2023/04/03 12:29:34;;;;;;;0.20;0.20;;;11.50;99.90;;;;;;5082592;28;20029;-78
2023/04/03 12:32:37;;;;;;;0.20;0.20;;;11.30;99.90;;;;;;5081986;28;20021;-78
2023/04/03 12:35:24;;;;;;;0.10;0.10;;;11.50;99.90;;;;;;5056458;28;20043;-78
2023/04/03 12:41:08;;;;;;;0.20;0.20;;;11.40;99.90;;;;;;5124169;22;20078;-79
2023/04/03 12:43:47;;;;;;;0.20;0.20;;;11.50;99.90;;;;;;5065199;28;20429;-78
2023/04/03 12:46:18;;;;;;;0.20;0.20;;;12.00;99.90;;;;;;5067559;28;20036;-80
2023/04/03 12:48:56;;;;;;;0.20;0.20;;;11.70;99.90;;;;;;5072225;28;20499;-81
2023/04/03 12:51:37;;;;;;;0.10;0.10;;;11.40;99.90;;;;;;5072507;28;20254;-80
2023/04/03 12:54:13;;;;;;;0.20;0.20;;;10.90;99.90;;;;;;5074967;28;20027;-81
2023/04/03 12:56:39;;;;;;;0.20;0.20;;;11.20;99.90;;;;;;5074215;28;20017;-80
2023/04/03 12:59:20;;;;;;;0.20;0.20;;;11.60;99.90;;;;;;5089694;28;20048;-80
2023/04/03 13:01:57;;;;;;;0.13;0.13;;;11.20;99.90;;;;;;5095650;28;20043;-81
2023/04/03 13:04:31;;;;;;;0.10;0.10;;;11.40;99.90;;;;;;5095682;28;20026;-80
2023/04/03 13:07:16;;;;;;;0.10;0.10;;;11.30;99.90;;;;;;5095666;28;20015;-80
2023/04/03 13:09:42;;;;;;;0.20;0.20;;;11.00;99.90;;;;;;5079299;28;20028;-81
2023/04/03 13:12:21;;;;;;;0.20;0.20;;;10.60;99.90;;;;;;5083080;28;20054;-80
2023/04/03 13:14:58;;;;;;;0.20;0.20;;;11.00;99.90;;;;;;5080377;28;20074;-82
2023/04/03 13:17:39;;;;;;;0.20;0.20;;;12.00;99.90;;;;;;5059010;28;20045;-79
2023/04/03 13:20:26;;;;;;;0.20;0.20;;;13.80;99.90;;;;;;5065730;28;20021;-80
2023/04/03 13:23:05;;;;;;;0.10;0.10;;;15.20;99.90;;;;;;5050228;28;20028;-79
2023/04/03 13:25:34;;;;;;;0.10;0.10;;;15.70;99.90;;;;;;5080466;28;20413;-79
2023/04/03 13:28:06;;;;;;;0.20;0.20;;;15.20;99.90;;;;;;5058121;28;20017;-78